CheckWX is a tool to help pilots better visualize weather data.  It is not intended as a substitute for an official pre-flight weather briefing.

06:57:22 UTC

DGAA TAF
Kotoka International Airport
Accra, Ghana
TAF DGAA 182300Z 1900/2006 18010KT 9999 BKN014 BECMG 1903/1905 25010KT PROB40 1906/1910 6000 BR BECMG 1911/1913 18015KT FEW030

Jun-19@
00:00 UTC

Jun-19 @ 00:00 UTC

Jun-19@
03:00 UTC

Jun-19 @ 03:00 UTC

TAF DGAA 182300Z 1900/2006 18010KT 9999 BKN014

Expired

Wind
  • 180° at 10 KTS
Cloud Levels
  • Broken at 1,400' AGL

Jun-19@
03:00 UTC

Jun-19 @ 03:00 UTC

Jun-19@
11:00 UTC

Jun-19 @ 11:00 UTC

BECMG 1903/1905 25010KT

Becoming

Becoming Conditions expected by Wed, Jun 19, 2019 @ 05:00 UTC

Wind
  • 250° at 10 KTS
Cloud Levels
  • Broken at 1,400' AGL

Jun-19@
06:00 UTC

Jun-19 @ 06:00 UTC

Jun-19@
10:00 UTC

Jun-19 @ 10:00 UTC

PROB40 1906/1910 6000 BR

Probable - 40% Likelihood

Probable - 40% Likelihood during this time.

Conditions
Mist

Jun-19@
11:00 UTC

Jun-19 @ 11:00 UTC

Jun-20@
06:00 UTC

Jun-20 @ 06:00 UTC

BECMG 1911/1913 18015KT FEW030

Becoming

Becoming Conditions expected by Wed, Jun 19, 2019 @ 13:00 UTC

Wind
  • 180° at 15 KTS
Cloud Levels
  • Few at 3,000' AGL